createdAt,value
2019-03-12T00:02:14.443Z,2.40
2019-03-12T00:04:43.373Z,2.40
2019-03-12T00:07:14.301Z,2.30
2019-03-12T00:09:43.212Z,2.30
2019-03-12T00:12:12.091Z,2.20
2019-03-12T00:14:41.159Z,2.30
2019-03-12T00:17:22.456Z,2.20
2019-03-12T00:19:58.222Z,2.20
2019-03-12T00:22:29.146Z,2.20
2019-03-12T00:24:59.996Z,2.20
2019-03-12T00:27:28.894Z,2.20
2019-03-12T00:29:59.830Z,2.20
2019-03-12T00:32:30.747Z,2.20
2019-03-12T00:35:02.813Z,2.20
2019-03-12T00:37:31.710Z,2.20
2019-03-12T00:40:01.655Z,2.20
2019-03-12T00:42:40.238Z,2.30
2019-03-12T00:45:12.297Z,2.20
2019-03-12T00:47:41.337Z,2.30
2019-03-12T00:50:11.472Z,2.50
2019-03-12T00:52:40.566Z,2.30
2019-03-12T00:55:09.805Z,2.20
2019-03-12T00:57:39.862Z,2.30
2019-03-12T01:00:11.894Z,2.20
2019-03-12T01:02:40.935Z,2.20
2019-03-12T01:05:10.944Z,2.20
2019-03-12T01:07:44.086Z,2.20
2019-03-12T01:10:22.507Z,2.10
2019-03-12T01:13:00.721Z,2.10
2019-03-12T01:15:36.897Z,2.10
2019-03-12T01:18:14.141Z,2.20
2019-03-12T01:20:43.235Z,2.10
2019-03-12T01:23:14.186Z,2.20
2019-03-12T01:25:44.293Z,2.30
2019-03-12T01:28:14.366Z,2.20
2019-03-12T01:30:43.395Z,2.10
2019-03-12T01:33:19.582Z,2.10
2019-03-12T01:35:53.588Z,2.20
2019-03-12T01:38:22.582Z,2.20
2019-03-12T01:40:51.625Z,2.10
2019-03-12T01:43:20.641Z,2.10
2019-03-12T01:45:49.752Z,2.20
2019-03-12T01:48:20.782Z,2.20
2019-03-12T01:50:49.809Z,2.20
2019-03-12T01:53:18.897Z,2.20
2019-03-12T01:55:50.946Z,2.20
2019-03-12T01:58:21.832Z,2.10
2019-03-12T02:00:50.868Z,2.10
2019-03-12T02:03:19.892Z,2.10
2019-03-12T02:05:50.994Z,2.10
2019-03-12T02:08:20.020Z,2.10
2019-03-12T02:10:54.043Z,2.10
2019-03-12T02:13:28.147Z,2.10
2019-03-12T02:15:57.207Z,2.10
2019-03-12T02:18:26.241Z,2.10
2019-03-12T02:21:01.315Z,2.10
2019-03-12T02:23:36.202Z,2.10
2019-03-12T02:26:06.240Z,2.20
2019-03-12T02:28:44.347Z,2.20
2019-03-12T02:31:13.313Z,2.20
2019-03-12T02:33:48.168Z,2.20
2019-03-12T02:36:28.095Z,2.10
2019-03-12T02:38:57.105Z,2.10
2019-03-12T02:41:28.046Z,2.20
2019-03-12T02:43:57.030Z,2.30
2019-03-12T02:46:25.970Z,2.30
2019-03-12T02:48:55.007Z,2.20
2019-03-12T02:51:25.035Z,2.10
2019-03-12T02:54:00.232Z,2.00
2019-03-12T02:56:29.261Z,2.10
2019-03-12T02:59:01.295Z,2.00
2019-03-12T03:01:33.567Z,1.90
2019-03-12T03:04:02.632Z,1.90
2019-03-12T03:06:52.795Z,1.90
2019-03-12T03:09:22.775Z,1.90
2019-03-12T03:11:54.963Z,1.90
2019-03-12T03:14:36.019Z,1.90
2019-03-12T03:17:05.531Z,1.90
2019-03-12T03:19:34.442Z,1.90
2019-03-12T03:22:09.536Z,1.80
2019-03-12T03:24:38.635Z,2.00
2019-03-12T03:27:07.547Z,2.00
2019-03-12T03:30:01.782Z,1.90
2019-03-12T03:32:30.838Z,1.90
2019-03-12T03:35:00.849Z,2.00
2019-03-12T03:37:35.680Z,1.90
2019-03-12T03:40:16.295Z,1.90
2019-03-12T03:42:45.403Z,1.90
2019-03-12T03:45:16.998Z,1.90
2019-03-12T03:47:53.784Z,1.80
2019-03-12T03:50:22.734Z,1.90
2019-03-12T03:52:53.764Z,1.70
2019-03-12T03:55:23.804Z,1.60
2019-03-12T03:57:53.895Z,1.40
2019-03-12T04:00:24.533Z,1.40
2019-03-12T04:03:00.532Z,1.30
2019-03-12T04:05:38.613Z,1.20
2019-03-12T04:08:08.603Z,1.10
2019-03-12T04:10:37.646Z,1.00
2019-03-12T04:13:08.741Z,1.10
2019-03-12T04:15:37.707Z,1.00
2019-03-12T04:18:06.638Z,1.00
2019-03-12T04:20:35.647Z,0.90
2019-03-12T04:23:10.485Z,0.80
2019-03-12T04:25:46.159Z,0.70
2019-03-12T04:28:21.263Z,0.60
2019-03-12T04:30:53.503Z,0.70
2019-03-12T04:34:15.971Z,0.70
2019-03-12T04:36:45.105Z,0.70
2019-03-12T04:39:24.856Z,0.70
2019-03-12T04:41:54.800Z,0.80
2019-03-12T04:44:24.122Z,0.90
2019-03-12T04:46:53.293Z,0.90
2019-03-12T04:49:23.406Z,1.00
2019-03-12T04:51:54.316Z,1.00
2019-03-12T04:54:23.262Z,1.10
2019-03-12T04:56:52.520Z,1.10
2019-03-12T04:59:21.657Z,1.20
2019-03-12T05:01:50.585Z,1.20
2019-03-12T05:04:19.457Z,1.10
2019-03-12T05:06:48.623Z,1.10
2019-03-12T05:09:31.438Z,1.10
2019-03-12T05:12:00.429Z,1.10
2019-03-12T05:14:31.785Z,1.10
2019-03-12T05:17:06.765Z,1.10
2019-03-12T05:19:35.935Z,1.00
2019-03-12T05:22:05.173Z,1.00
2019-03-12T05:24:34.009Z,1.00
2019-03-12T05:27:02.899Z,1.10
2019-03-12T05:29:31.741Z,1.00
2019-03-12T05:32:00.567Z,1.00
2019-03-12T05:34:29.418Z,0.90
2019-03-12T05:36:58.546Z,0.90
2019-03-12T05:39:27.523Z,0.90
2019-03-12T05:41:56.590Z,0.90
2019-03-12T05:44:25.762Z,0.80
2019-03-12T05:46:54.648Z,0.80
2019-03-12T05:49:23.810Z,0.80
2019-03-12T05:51:52.713Z,0.80
2019-03-12T05:54:21.863Z,0.80
2019-03-12T05:56:50.831Z,0.80
2019-03-12T05:59:21.114Z,0.70
2019-03-12T06:01:50.259Z,0.70
2019-03-12T06:04:19.150Z,0.70
2019-03-12T06:06:48.393Z,0.70
2019-03-12T06:09:29.497Z,0.80
2019-03-12T06:11:48.162Z,0.80
2019-03-12T06:14:17.130Z,0.90
2019-03-12T06:16:45.953Z,0.90
2019-03-12T06:19:14.770Z,1.00
2019-03-12T06:21:43.613Z,0.90
2019-03-12T06:24:15.755Z,0.90
2019-03-12T06:26:44.821Z,1.00
2019-03-12T06:29:14.709Z,1.00
2019-03-12T06:32:03.723Z,1.00
2019-03-12T06:34:45.647Z,1.20
2019-03-12T06:37:39.441Z,1.20
2019-03-12T06:40:26.547Z,1.20
2019-03-12T06:43:10.679Z,1.20
2019-03-12T06:45:57.663Z,1.30
2019-03-12T06:48:38.470Z,1.10
2019-03-12T06:51:14.407Z,1.10
2019-03-12T06:53:58.058Z,1.20
2019-03-12T06:56:44.823Z,1.10
2019-03-12T06:59:36.022Z,1.30
2019-03-12T07:02:22.981Z,1.40
2019-03-12T07:05:24.017Z,1.60
2019-03-12T07:08:10.787Z,1.60
2019-03-12T07:10:54.266Z,1.70
2019-03-12T07:13:37.942Z,1.80
2019-03-12T07:16:23.990Z,1.80
2019-03-12T07:19:01.409Z,2.00
2019-03-12T07:21:39.878Z,2.20
2019-03-12T07:24:28.169Z,2.40
2019-03-12T07:27:09.509Z,2.50
2019-03-12T07:29:53.707Z,2.40
2019-03-12T07:32:38.113Z,2.40
2019-03-12T07:35:29.321Z,2.30
2019-03-12T07:38:16.766Z,2.20
2019-03-12T07:41:04.930Z,2.30
2019-03-12T07:43:54.374Z,2.30
2019-03-12T07:46:44.793Z,2.40
2019-03-12T07:49:48.283Z,2.60
2019-03-12T07:52:36.257Z,2.60
2019-03-12T07:55:23.465Z,2.70
2019-03-12T07:58:10.442Z,2.80
2019-03-12T08:01:05.800Z,2.80
2019-03-12T08:04:02.869Z,3.00
2019-03-12T08:06:50.776Z,3.10
2019-03-12T08:09:41.437Z,3.20
2019-03-12T08:12:21.675Z,3.20
2019-03-12T08:15:08.574Z,3.20
2019-03-12T08:17:51.654Z,3.20
2019-03-12T08:20:44.107Z,3.30
2019-03-12T08:23:38.082Z,3.20
2019-03-12T08:26:31.939Z,3.30
2019-03-12T08:29:19.262Z,3.50
2019-03-12T08:32:10.055Z,3.60
2019-03-12T08:34:49.607Z,3.60
2019-03-12T08:37:37.659Z,3.70
2019-03-12T08:40:28.969Z,3.60
2019-03-12T08:43:22.737Z,3.70
2019-03-12T08:46:13.742Z,3.70
2019-03-12T08:49:04.849Z,3.90
2019-03-12T08:51:48.517Z,3.90
2019-03-12T08:54:39.394Z,4.00
2019-03-12T08:57:42.793Z,4.00
2019-03-12T09:00:20.755Z,4.00
2019-03-12T09:02:56.469Z,4.00
2019-03-12T09:05:53.767Z,4.00
2019-03-12T09:08:44.194Z,4.00
2019-03-12T09:11:32.202Z,4.00
2019-03-12T09:14:18.151Z,4.10
2019-03-12T09:17:06.223Z,4.20
2019-03-12T09:19:52.367Z,4.40
2019-03-12T09:22:58.579Z,4.50
2019-03-12T09:25:50.500Z,4.60
2019-03-12T09:28:29.864Z,4.60
2019-03-12T09:31:09.125Z,4.60
2019-03-12T09:33:53.521Z,4.50
2019-03-12T09:36:47.370Z,4.60
2019-03-12T09:39:24.562Z,4.60
2019-03-12T09:42:21.869Z,4.70
2019-03-12T09:45:12.783Z,4.70
2019-03-12T09:47:54.790Z,4.80
2019-03-12T09:50:47.257Z,4.80
2019-03-12T09:53:47.186Z,4.80
2019-03-12T09:56:34.115Z,4.80
2019-03-12T09:59:22.002Z,4.80
2019-03-12T10:02:03.858Z,4.80
2019-03-12T10:04:38.832Z,4.80
2019-03-12T10:07:29.994Z,5.00
2019-03-12T10:10:05.689Z,5.10
2019-03-12T10:12:53.682Z,5.20
2019-03-12T10:15:41.999Z,5.30
2019-03-12T10:18:29.931Z,5.30
2019-03-12T10:21:16.758Z,5.30
2019-03-12T10:23:54.138Z,5.50
2019-03-12T10:26:46.258Z,5.70
2019-03-12T10:29:20.482Z,5.70
2019-03-12T10:32:00.808Z,5.80
2019-03-12T10:34:51.579Z,5.80
2019-03-12T10:37:42.246Z,5.90
2019-03-12T10:40:16.378Z,5.90
2019-03-12T10:42:56.478Z,5.90
2019-03-12T10:45:50.710Z,5.90
2019-03-12T10:48:19.807Z,5.90
2019-03-12T10:50:48.735Z,5.90
2019-03-12T10:53:17.701Z,5.90
2019-03-12T10:55:46.778Z,6.00
2019-03-12T10:58:15.801Z,6.00
2019-03-12T11:00:44.791Z,6.20
2019-03-12T11:03:13.875Z,6.30
2019-03-12T11:05:46.266Z,6.40
2019-03-12T11:08:13.539Z,6.50
2019-03-12T11:10:42.486Z,6.60
2019-03-12T11:13:14.446Z,6.60
2019-03-12T11:15:42.022Z,6.70
2019-03-12T11:18:10.958Z,6.90
2019-03-12T11:20:40.121Z,6.90
2019-03-12T11:23:09.018Z,7.00
2019-03-12T11:25:38.038Z,7.00
2019-03-12T11:28:06.937Z,7.00
2019-03-12T11:30:38.006Z,7.10
2019-03-12T11:33:07.022Z,7.10
2019-03-12T11:35:44.898Z,7.20
2019-03-12T11:38:13.822Z,7.20
2019-03-12T11:40:43.088Z,7.30
2019-03-12T11:43:12.256Z,7.40
2019-03-12T11:45:41.259Z,7.50
2019-03-12T11:48:10.468Z,7.60
2019-03-12T11:50:39.502Z,7.60
2019-03-12T11:53:08.498Z,7.50
2019-03-12T11:55:37.555Z,7.60
2019-03-12T11:58:06.725Z,7.60
2019-03-12T12:00:41.236Z,7.70
2019-03-12T12:03:10.501Z,7.70
2019-03-12T12:05:39.495Z,7.60
2019-03-12T12:08:08.391Z,7.80
2019-03-12T12:10:37.686Z,7.80
2019-03-12T12:13:06.679Z,8.00
2019-03-12T12:15:35.691Z,7.70
2019-03-12T12:18:06.382Z,7.90
2019-03-12T12:20:35.301Z,8.20
2019-03-12T12:23:04.294Z,8.30
2019-03-12T12:25:33.303Z,8.40
2019-03-12T12:28:08.091Z,8.50
2019-03-12T12:30:43.979Z,8.60
2019-03-12T12:33:12.971Z,8.60
2019-03-12T12:35:41.963Z,8.90
2019-03-12T12:38:11.018Z,9.10
2019-03-12T12:40:40.008Z,9.30
2019-03-12T12:43:09.114Z,9.40
2019-03-12T12:45:38.170Z,9.40
2019-03-12T12:48:11.304Z,9.40
2019-03-12T12:50:40.299Z,9.20
2019-03-12T12:53:09.393Z,9.10
2019-03-12T12:55:38.459Z,9.20
2019-03-12T12:58:08.383Z,9.20
2019-03-12T13:00:38.425Z,9.10
2019-03-12T13:03:14.661Z,9.00
2019-03-12T13:05:43.692Z,8.90
2019-03-12T13:08:13.023Z,8.90
2019-03-12T13:10:43.032Z,8.90
2019-03-12T13:13:12.026Z,9.00
2019-03-12T13:15:40.918Z,9.10
2019-03-12T13:18:09.915Z,9.20
2019-03-12T13:20:38.864Z,9.20
2019-03-12T13:23:07.866Z,9.10
2019-03-12T13:25:36.795Z,9.10
2019-03-12T13:28:06.750Z,9.20
2019-03-12T13:30:35.812Z,9.20
2019-03-12T13:33:04.766Z,9.00
2019-03-12T13:35:33.755Z,9.10
2019-03-12T13:38:02.714Z,9.20
2019-03-12T13:40:31.655Z,9.40
2019-03-12T13:43:00.660Z,9.40
2019-03-12T13:45:29.682Z,9.50
2019-03-12T13:47:58.862Z,9.60
2019-03-12T13:50:28.024Z,9.60
2019-03-12T13:52:57.046Z,9.50
2019-03-12T13:55:26.145Z,9.40
2019-03-12T13:57:55.206Z,9.50
2019-03-12T14:00:24.303Z,9.50
2019-03-12T14:02:53.410Z,9.50
2019-03-12T14:05:22.422Z,9.50
2019-03-12T14:07:51.458Z,9.60
2019-03-12T14:10:21.416Z,9.50
2019-03-12T14:12:50.930Z,9.60
2019-03-12T14:15:25.765Z,9.60
2019-03-12T14:17:54.813Z,9.50
2019-03-12T14:21:02.123Z,9.50
2019-03-12T14:23:34.184Z,9.50
2019-03-12T14:26:03.343Z,9.30
2019-03-12T14:28:32.309Z,9.10
2019-03-12T14:31:01.843Z,9.10
2019-03-12T14:33:30.842Z,9.20
2019-03-12T14:35:59.778Z,9.30
2019-03-12T14:38:28.767Z,9.40
2019-03-12T14:40:57.768Z,9.50
2019-03-12T14:43:27.069Z,9.40
2019-03-12T14:45:59.098Z,9.30
2019-03-12T14:48:45.355Z,9.40
2019-03-12T14:51:35.912Z,9.50
2019-03-12T14:54:05.235Z,9.40
2019-03-12T14:56:34.167Z,9.50
2019-03-12T14:59:03.617Z,9.40
2019-03-12T15:01:32.651Z,9.40
2019-03-12T15:04:01.730Z,9.40
2019-03-12T15:06:30.756Z,9.30
2019-03-12T15:09:01.519Z,9.20
2019-03-12T15:11:30.462Z,9.10
2019-03-12T15:13:59.657Z,9.00
2019-03-12T15:16:28.590Z,9.00
2019-03-12T15:18:57.602Z,8.90
2019-03-12T15:21:29.644Z,8.90
2019-03-12T15:23:58.921Z,8.90
2019-03-12T15:26:33.408Z,9.00
2019-03-12T15:29:03.459Z,9.00
2019-03-12T15:31:32.502Z,9.10
2019-03-12T15:34:01.521Z,9.10
2019-03-12T15:36:34.906Z,8.90
2019-03-12T15:39:05.504Z,8.90
2019-03-12T15:41:34.429Z,8.80
2019-03-12T15:44:03.847Z,8.70
2019-03-12T15:46:32.781Z,8.80
2019-03-12T15:49:01.701Z,8.80
2019-03-12T15:51:30.554Z,8.60
2019-03-12T15:54:00.426Z,8.60
2019-03-12T15:56:29.414Z,8.60
2019-03-12T15:58:58.432Z,8.50
2019-03-12T16:01:27.336Z,8.50
2019-03-12T16:03:56.368Z,8.50
2019-03-12T16:06:26.508Z,8.40
2019-03-12T16:08:55.711Z,8.30
2019-03-12T16:11:24.696Z,8.20
2019-03-12T16:13:53.633Z,8.20
2019-03-12T16:16:22.644Z,8.20
2019-03-12T16:18:51.575Z,8.10
2019-03-12T16:21:20.540Z,8.10
2019-03-12T16:23:52.713Z,8.00
2019-03-12T16:26:21.056Z,8.00
2019-03-12T16:28:49.910Z,7.90
2019-03-12T16:31:18.866Z,7.80
2019-03-12T16:33:48.380Z,7.70
2019-03-12T16:36:17.222Z,7.60
2019-03-12T16:38:46.144Z,7.50
2019-03-12T16:41:15.098Z,7.50
2019-03-12T16:43:49.792Z,7.40
2019-03-12T16:46:18.890Z,7.40
2019-03-12T16:48:47.920Z,7.40
2019-03-12T16:51:18.935Z,7.40
2019-03-12T16:53:47.831Z,7.30
2019-03-12T16:56:16.676Z,7.30
2019-03-12T16:58:45.557Z,7.30
2019-03-12T17:01:14.758Z,7.20
2019-03-12T17:03:43.769Z,7.20
2019-03-12T17:06:12.787Z,7.20
2019-03-12T17:08:41.651Z,7.10
2019-03-12T17:11:10.728Z,7.00
2019-03-12T17:13:39.596Z,6.90
2019-03-12T17:16:08.534Z,6.90
2019-03-12T17:18:37.496Z,6.80
2019-03-12T17:21:09.523Z,6.80
2019-03-12T17:23:38.485Z,6.80
2019-03-12T17:26:07.399Z,6.80
2019-03-12T17:28:36.335Z,6.70
2019-03-12T17:31:05.339Z,6.70
2019-03-12T17:33:40.283Z,6.60
2019-03-12T17:36:09.291Z,6.60
2019-03-12T17:38:47.554Z,6.60
2019-03-12T17:41:16.574Z,6.50
2019-03-12T17:43:45.504Z,6.50
2019-03-12T17:46:14.518Z,6.50
2019-03-12T17:48:43.510Z,6.50
2019-03-12T17:51:12.442Z,6.50
2019-03-12T17:53:41.303Z,6.50
2019-03-12T17:56:10.223Z,6.50
2019-03-12T17:58:39.172Z,6.50
2019-03-12T18:01:08.180Z,6.40
2019-03-12T18:03:37.160Z,6.40
2019-03-12T18:06:06.174Z,6.40
2019-03-12T18:08:35.078Z,6.40
2019-03-12T18:11:03.957Z,6.40
2019-03-12T18:13:32.790Z,6.40
2019-03-12T18:16:01.658Z,6.40
2019-03-12T18:18:32.905Z,6.30
2019-03-12T18:21:03.230Z,6.30
2019-03-12T18:23:32.108Z,6.30
2019-03-12T18:26:11.573Z,6.30
2019-03-12T18:28:40.638Z,6.30
2019-03-12T18:31:14.469Z,6.20
2019-03-12T18:33:43.521Z,6.20
2019-03-12T18:36:13.493Z,6.10
2019-03-12T18:38:42.540Z,6.10
2019-03-12T18:41:11.633Z,6.10
2019-03-12T18:43:40.595Z,6.10
2019-03-12T18:46:15.873Z,6.10
2019-03-12T18:48:45.023Z,6.10
2019-03-12T18:51:14.981Z,6.00
2019-03-12T18:53:46.011Z,6.00
2019-03-12T18:56:21.879Z,6.00
2019-03-12T18:58:56.743Z,6.00
2019-03-12T19:01:32.506Z,6.00
2019-03-12T19:04:04.728Z,6.00
2019-03-12T19:06:33.817Z,6.10
2019-03-12T19:09:05.186Z,6.10
2019-03-12T19:11:39.914Z,6.10
2019-03-12T19:14:08.992Z,6.00
2019-03-12T19:16:38.091Z,6.10
2019-03-12T19:19:26.279Z,6.10
2019-03-12T19:21:55.199Z,6.20
2019-03-12T19:24:24.207Z,6.20
2019-03-12T19:26:55.062Z,6.20
2019-03-12T19:29:24.169Z,6.20
2019-03-12T19:31:59.682Z,6.20
2019-03-12T19:34:38.447Z,6.30
2019-03-12T19:37:08.682Z,6.30
2019-03-12T19:39:40.100Z,6.40
2019-03-12T19:42:09.145Z,6.30
2019-03-12T19:44:38.093Z,6.40
2019-03-12T19:47:07.174Z,6.30
2019-03-12T19:49:36.144Z,6.30
2019-03-12T19:52:07.193Z,6.30
2019-03-12T19:54:36.106Z,6.30
2019-03-12T19:57:08.192Z,6.30
2019-03-12T19:59:37.250Z,6.30
2019-03-12T20:02:16.092Z,6.20
2019-03-12T20:04:47.250Z,6.20
2019-03-12T20:07:10.939Z,6.30
2019-03-12T20:10:24.101Z,6.30
2019-03-12T20:13:39.597Z,6.20
2019-03-12T20:16:44.481Z,6.20
2019-03-12T20:19:54.262Z,6.20
2019-03-12T20:23:02.651Z,6.20
2019-03-12T20:26:07.505Z,6.20
2019-03-12T20:29:15.809Z,6.20
2019-03-12T20:32:22.511Z,6.20
2019-03-12T20:35:43.793Z,6.10
2019-03-12T20:38:51.306Z,6.20
2019-03-12T20:42:28.823Z,6.30
2019-03-12T20:45:34.228Z,6.20
2019-03-12T20:48:40.343Z,6.20
2019-03-12T20:51:44.974Z,6.20
2019-03-12T20:54:53.337Z,6.20
2019-03-12T20:57:57.977Z,6.20
2019-03-12T21:01:20.881Z,6.20
2019-03-12T21:04:26.894Z,6.20
2019-03-12T21:07:29.988Z,6.20
2019-03-12T21:10:35.155Z,6.30
2019-03-12T21:13:41.101Z,6.20
2019-03-12T21:16:52.846Z,6.30
2019-03-12T21:20:08.450Z,6.40
2019-03-12T21:23:36.113Z,6.30
2019-03-12T21:26:28.628Z,6.30
2019-03-12T21:29:40.171Z,6.30
2019-03-12T21:32:09.246Z,6.30
2019-03-12T21:34:38.373Z,6.40
2019-03-12T21:37:07.450Z,6.40
2019-03-12T21:39:55.819Z,6.40
2019-03-12T21:42:25.642Z,6.50
2019-03-12T21:45:02.168Z,6.40
2019-03-12T21:47:31.554Z,6.40
2019-03-12T21:50:00.500Z,6.50
2019-03-12T21:52:31.402Z,6.50
2019-03-12T21:55:00.428Z,6.50
2019-03-12T21:57:29.468Z,6.40
2019-03-12T22:00:00.589Z,6.30
2019-03-12T22:02:30.579Z,6.30
2019-03-12T22:05:02.534Z,6.30
2019-03-12T22:07:31.415Z,6.30
2019-03-12T22:10:02.343Z,6.30
2019-03-12T22:12:38.393Z,6.30
2019-03-12T22:15:08.143Z,6.30
2019-03-12T22:17:38.261Z,6.20
2019-03-12T22:20:09.505Z,6.30
2019-03-12T22:22:43.089Z,6.20
2019-03-12T22:25:13.870Z,6.30
2019-03-12T22:27:45.015Z,6.40
2019-03-12T22:30:17.676Z,6.50
2019-03-12T22:33:05.743Z,6.60
2019-03-12T22:35:34.761Z,6.70
2019-03-12T22:38:03.694Z,6.80
2019-03-12T22:40:32.630Z,6.80
2019-03-12T22:43:01.468Z,6.90
2019-03-12T22:45:30.417Z,6.90
2019-03-12T22:47:59.411Z,6.90
2019-03-12T22:50:28.300Z,6.90
2019-03-12T22:52:57.198Z,6.90
2019-03-12T22:55:27.118Z,7.00
2019-03-12T22:57:56.067Z,7.00
2019-03-12T23:00:26.145Z,7.10
2019-03-12T23:02:55.097Z,7.20
2019-03-12T23:05:24.007Z,7.30
2019-03-12T23:07:55.207Z,7.20
2019-03-12T23:10:25.095Z,7.30
2019-03-12T23:12:54.093Z,7.30
2019-03-12T23:15:23.169Z,7.40
2019-03-12T23:17:52.175Z,7.50
2019-03-12T23:20:21.268Z,7.50
2019-03-12T23:22:52.251Z,7.40
2019-03-12T23:25:21.105Z,7.50
2019-03-12T23:27:50.111Z,7.50
2019-03-12T23:30:19.119Z,7.50
2019-03-12T23:32:48.128Z,7.60
2019-03-12T23:35:17.128Z,7.80
2019-03-12T23:37:46.206Z,7.80
2019-03-12T23:40:15.593Z,7.90
2019-03-12T23:42:44.581Z,7.90
2019-03-12T23:45:13.682Z,7.90
2019-03-12T23:47:42.691Z,7.90
2019-03-12T23:50:12.277Z,7.90
2019-03-12T23:52:41.262Z,8.00
2019-03-12T23:55:10.976Z,8.00
2019-03-12T23:57:46.187Z,8.00
